sensor_id;sensor_type;location;lat;lon;timestamp;pressure;altitude;pressure_sealevel;temperature;humidity
12763;BME280;6445;52.490;13.378;2023-08-30T00:01:17;63533.56;;;-146.10;100.00
12763;BME280;6445;52.490;13.378;2023-08-30T00:03:42;63286.81;;;-146.10;100.00
12763;BME280;6445;52.490;13.378;2023-08-30T00:06:08;63304.84;;;-146.10;100.00
12763;BME280;6445;52.490;13.378;2023-08-30T00:08:34;63216.59;;;-146.10;100.00
12763;BME280;6445;52.490;13.378;2023-08-30T00:10:59;63164.44;;;-146.10;100.00
12763;BME280;6445;52.490;13.378;2023-08-30T00:13:25;63044.06;;;-146.10;100.00
12763;BME280;6445;52.490;13.378;2023-08-30T00:15:51;63349.00;;;-146.10;100.00
12763;BME280;6445;52.490;13.378;2023-08-30T00:18:16;63068.13;;;-146.10;100.00
12763;BME280;6445;52.490;13.378;2023-08-30T00:20:44;63058.09;;;-146.10;100.00
12763;BME280;6445;52.490;13.378;2023-08-30T00:23:09;62522.53;;;-146.10;100.00
12763;BME280;6445;52.490;13.378;2023-08-30T00:25:34;61812.53;;;-146.10;100.00
12763;BME280;6445;52.490;13.378;2023-08-30T00:27:59;61421.47;;;-146.10;100.00
12763;BME280;6445;52.490;13.378;2023-08-30T00:30:25;61002.41;;;-146.10;100.00
12763;BME280;6445;52.490;13.378;2023-08-30T00:32:50;60739.75;;;-146.10;100.00
12763;BME280;6445;52.490;13.378;2023-08-30T00:35:15;60485.13;;;-146.10;100.00
12763;BME280;6445;52.490;13.378;2023-08-30T00:37:40;60567.34;;;-146.10;100.00
12763;BME280;6445;52.490;13.378;2023-08-30T00:40:06;60986.38;;;-146.10;100.00
12763;BME280;6445;52.490;13.378;2023-08-30T00:42:31;61297.16;;;-146.10;100.00
12763;BME280;6445;52.490;13.378;2023-08-30T00:44:56;61559.84;;;-146.10;100.00
12763;BME280;6445;52.490;13.378;2023-08-30T00:47:22;61634.03;;;-146.10;100.00
12763;BME280;6445;52.490;13.378;2023-08-30T00:49:48;61226.97;;;-146.10;100.00
12763;BME280;6445;52.490;13.378;2023-08-30T00:52:13;61435.53;;;-146.10;100.00
12763;BME280;6445;52.490;13.378;2023-08-30T00:54:39;61325.22;;;-146.10;100.00
12763;BME280;6445;52.490;13.378;2023-08-30T00:57:04;60928.22;;;-146.10;100.00
12763;BME280;6445;52.490;13.378;2023-08-30T00:59:32;60593.41;;;-146.10;100.00
12763;BME280;6445;52.490;13.378;2023-08-30T01:01:57;60150.34;;;-146.10;100.00
12763;BME280;6445;52.490;13.378;2023-08-30T01:04:24;59931.84;;;-146.10;100.00
12763;BME280;6445;52.490;13.378;2023-08-30T01:06:50;59803.56;;;-146.10;100.00
12763;BME280;6445;52.490;13.378;2023-08-30T01:09:16;59637.22;;;-146.10;100.00
12763;BME280;6445;52.490;13.378;2023-08-30T01:12:02;59396.69;;;-146.10;100.00
12763;BME280;6445;52.490;13.378;2023-08-30T01:14:44;59334.56;;;-146.10;100.00
12763;BME280;6445;52.490;13.378;2023-08-30T01:17:11;59064.00;;;-146.10;100.00
12763;BME280;6445;52.490;13.378;2023-08-30T01:19:51;58941.75;;;-146.10;100.00
12763;BME280;6445;52.490;13.378;2023-08-30T01:22:31;58987.84;;;-146.10;100.00
12763;BME280;6445;52.490;13.378;2023-08-30T01:27:39;58018.03;;;-146.10;100.00
12763;BME280;6445;52.490;13.378;2023-08-30T01:30:06;58002.00;;;-146.10;100.00
12763;BME280;6445;52.490;13.378;2023-08-30T01:32:33;58044.06;;;-146.10;100.00
12763;BME280;6445;52.490;13.378;2023-08-30T01:35:00;58108.19;;;-146.10;100.00
12763;BME280;6445;52.490;13.378;2023-08-30T01:37:26;58026.03;;;-146.10;100.00
12763;BME280;6445;52.490;13.378;2023-08-30T01:39:52;57933.88;;;-146.10;100.00
12763;BME280;6445;52.490;13.378;2023-08-30T01:42:19;56994.34;;;-146.10;100.00
12763;BME280;6445;52.490;13.378;2023-08-30T01:44:48;56631.81;;;-146.10;100.00
12763;BME280;6445;52.490;13.378;2023-08-30T01:47:14;56768.00;;;-146.10;100.00
12763;BME280;6445;52.490;13.378;2023-08-30T01:49:42;57056.44;;;-146.10;100.00
12763;BME280;6445;52.490;13.378;2023-08-30T01:52:09;56966.31;;;-146.10;100.00
12763;BME280;6445;52.490;13.378;2023-08-30T01:54:36;56984.34;;;-146.10;100.00
12763;BME280;6445;52.490;13.378;2023-08-30T01:57:02;56942.28;;;-146.10;100.00
12763;BME280;6445;52.490;13.378;2023-08-30T01:59:29;56846.13;;;-146.10;100.00
12763;BME280;6445;52.490;13.378;2023-08-30T02:01:54;56519.66;;;-146.10;100.00
12763;BME280;6445;52.490;13.378;2023-08-30T02:04:20;56393.50;;;-146.10;100.00
12763;BME280;6445;52.490;13.378;2023-08-30T02:06:54;56237.28;;;-146.10;100.00
12763;BME280;6445;52.490;13.378;2023-08-30T02:09:27;56393.50;;;-146.10;100.00
12763;BME280;6445;52.490;13.378;2023-08-30T02:11:53;55950.91;;;-146.10;100.00
12763;BME280;6445;52.490;13.378;2023-08-30T02:14:20;55774.69;;;-146.10;100.00
12763;BME280;6445;52.490;13.378;2023-08-30T02:16:47;55622.53;;;-146.10;100.00
12763;BME280;6445;52.490;13.378;2023-08-30T02:19:13;55714.63;;;-146.10;100.00
12763;BME280;6445;52.490;13.378;2023-08-30T02:21:42;55684.59;;;-146.10;100.00
12763;BME280;6445;52.490;13.378;2023-08-30T02:24:07;55652.56;;;-146.10;100.00
12763;BME280;6445;52.490;13.378;2023-08-30T02:26:33;55188.03;;;-146.10;100.00
12763;BME280;6445;52.490;13.378;2023-08-30T02:28:58;54823.66;;;-146.10;100.00
12763;BME280;6445;52.490;13.378;2023-08-30T02:31:24;54885.72;;;-146.10;100.00
12763;BME280;6445;52.490;13.378;2023-08-30T02:33:49;54895.75;;;-146.10;100.00
12763;BME280;6445;52.490;13.378;2023-08-30T02:36:14;55250.09;;;-146.10;100.00
12763;BME280;6445;52.490;13.378;2023-08-30T02:38:39;55524.41;;;-146.10;100.00
12763;BME280;6445;52.490;13.378;2023-08-30T02:41:05;55334.19;;;-146.10;100.00
12763;BME280;6445;52.490;13.378;2023-08-30T02:43:30;55121.97;;;-146.10;100.00
12763;BME280;6445;52.490;13.378;2023-08-30T02:45:55;54909.75;;;-146.10;100.00
12763;BME280;6445;52.490;13.378;2023-08-30T02:48:21;54901.75;;;-146.10;100.00
12763;BME280;6445;52.490;13.378;2023-08-30T02:50:46;54675.53;;;-146.10;100.00
12763;BME280;6445;52.490;13.378;2023-08-30T02:53:11;54187.13;;;-146.10;100.00
12763;BME280;6445;52.490;13.378;2023-08-30T02:55:37;54181.09;;;-146.10;100.00
12763;BME280;6445;52.490;13.378;2023-08-30T02:58:02;53962.94;;;-146.10;100.00
12763;BME280;6445;52.490;13.378;2023-08-30T03:00:28;53294.50;;;-146.10;100.00
12763;BME280;6445;52.490;13.378;2023-08-30T03:02:53;53794.81;;;-146.10;100.00
12763;BME280;6445;52.490;13.378;2023-08-30T03:05:18;53440.59;;;-146.10;100.00
12763;BME280;6445;52.490;13.378;2023-08-30T03:07:44;53598.69;;;-146.10;100.00
12763;BME280;6445;52.490;13.378;2023-08-30T03:10:10;53874.88;;;-146.10;100.00
12763;BME280;6445;52.490;13.378;2023-08-30T03:12:35;54159.09;;;-146.10;100.00
12763;BME280;6445;52.490;13.378;2023-08-30T03:15:00;54451.34;;;-146.10;100.00
12763;BME280;6445;52.490;13.378;2023-08-30T03:17:26;54575.44;;;-146.10;100.00
12763;BME280;6445;52.490;13.378;2023-08-30T03:19:54;54577.44;;;-146.10;100.00
12763;BME280;6445;52.490;13.378;2023-08-30T03:22:19;54289.19;;;-146.10;100.00
12763;BME280;6445;52.490;13.378;2023-08-30T03:24:44;53986.97;;;-146.10;100.00
12763;BME280;6445;52.490;13.378;2023-08-30T03:27:09;53732.78;;;-146.10;100.00
12763;BME280;6445;52.490;13.378;2023-08-30T03:29:35;53394.56;;;-146.10;100.00
12763;BME280;6445;52.490;13.378;2023-08-30T03:32:00;53076.38;;;-146.10;100.00
12763;BME280;6445;52.490;13.378;2023-08-30T03:34:25;52964.31;;;-146.10;100.00
12763;BME280;6445;52.490;13.378;2023-08-30T03:36:50;52854.28;;;-146.10;100.00
12763;BME280;6445;52.490;13.378;2023-08-30T03:39:20;52764.22;;;-146.10;100.00
12763;BME280;6445;52.490;13.378;2023-08-30T03:41:45;52790.25;;;-146.10;100.00
12763;BME280;6445;52.490;13.378;2023-08-30T03:44:10;52350.06;;;-146.10;100.00
12763;BME280;6445;52.490;13.378;2023-08-30T03:46:36;52047.97;;;-146.10;100.00
12763;BME280;6445;52.490;13.378;2023-08-30T03:49:01;51743.91;;;-146.10;100.00
12763;BME280;6445;52.490;13.378;2023-08-30T03:51:27;51483.88;;;-146.10;100.00
12763;BME280;6445;52.490;13.378;2023-08-30T03:53:52;51289.84;;;-146.10;100.00
12763;BME280;6445;52.490;13.378;2023-08-30T03:56:17;51173.84;;;-146.10;100.00
12763;BME280;6445;52.490;13.378;2023-08-30T03:58:42;51105.84;;;-146.10;100.00
12763;BME280;6445;52.490;13.378;2023-08-30T04:01:09;51029.84;;;-146.10;100.00
12763;BME280;6445;52.490;13.378;2023-08-30T04:03:34;51097.84;;;-146.10;100.00
12763;BME280;6445;52.490;13.378;2023-08-30T04:06:00;51013.84;;;-146.10;100.00
12763;BME280;6445;52.490;13.378;2023-08-30T04:08:25;51033.84;;;-146.10;100.00
12763;BME280;6445;52.490;13.378;2023-08-30T04:10:53;51113.84;;;-146.10;100.00
12763;BME280;6445;52.490;13.378;2023-08-30T04:13:18;50859.84;;;-146.10;100.00
12763;BME280;6445;52.490;13.378;2023-08-30T04:15:43;50413.91;;;-146.10;100.00
12763;BME280;6445;52.490;13.378;2023-08-30T04:18:08;49700.06;;;-146.10;100.00
12763;BME280;6445;52.490;13.378;2023-08-30T04:20:34;49314.22;;;-146.10;100.00
12763;BME280;6445;52.490;13.378;2023-08-30T04:23:00;49290.22;;;-146.10;100.00
12763;BME280;6445;52.490;13.378;2023-08-30T04:25:29;49480.16;;;-146.10;100.00
12763;BME280;6445;52.490;13.378;2023-08-30T04:27:54;49510.13;;;-146.10;100.00
12763;BME280;6445;52.490;13.378;2023-08-30T04:30:20;49802.03;;;-146.10;100.00
12763;BME280;6445;52.490;13.378;2023-08-30T04:32:45;50059.97;;;-146.10;100.00
12763;BME280;6445;52.490;13.378;2023-08-30T04:35:10;50217.94;;;-146.10;100.00
12763;BME280;6445;52.490;13.378;2023-08-30T04:37:36;50251.91;;;-146.10;100.00
12763;BME280;6445;52.490;13.378;2023-08-30T04:40:03;49820.03;;;-146.10;100.00
12763;BME280;6445;52.490;13.378;2023-08-30T04:42:28;49354.19;;;-146.10;100.00
12763;BME280;6445;52.490;13.378;2023-08-30T04:44:54;48966.38;;;-146.10;100.00
12763;BME280;6445;52.490;13.378;2023-08-30T04:47:21;48632.56;;;-146.10;100.00
12763;BME280;6445;52.490;13.378;2023-08-30T04:49:52;47615.31;;;-146.10;100.00
12763;BME280;6445;52.490;13.378;2023-08-30T04:52:17;46616.31;;;-146.10;100.00
12763;BME280;6445;52.490;13.378;2023-08-30T04:54:42;46128.88;;;-146.10;100.00
12763;BME280;6445;52.490;13.378;2023-08-30T04:57:08;46262.72;;;-146.10;100.00
12763;BME280;6445;52.490;13.378;2023-08-30T04:59:33;46102.91;;;-146.10;100.00
12763;BME280;6445;52.490;13.378;2023-08-30T05:01:58;45913.16;;;-146.10;100.00
12763;BME280;6445;52.490;13.378;2023-08-30T05:04:24;45497.72;;;-146.10;100.00
12763;BME280;6445;52.490;13.378;2023-08-30T05:06:49;45268.03;;;-146.10;100.00
12763;BME280;6445;52.490;13.378;2023-08-30T05:09:15;44627.03;;;-146.10;100.00
12763;BME280;6445;52.490;13.378;2023-08-30T05:11:40;43556.91;;;-146.10;100.00
12763;BME280;6445;52.490;13.378;2023-08-30T05:14:05;42562.91;;;-146.10;100.00
12763;BME280;6445;52.490;13.378;2023-08-30T05:16:30;41138.22;;;-146.10;100.00
12763;BME280;6445;52.490;13.378;2023-08-30T05:18:56;39845.69;;;-146.10;100.00
12763;BME280;6445;52.490;13.378;2023-08-30T05:21:21;38571.50;;;-146.10;100.00
12763;BME280;6445;52.490;13.378;2023-08-30T05:23:46;36604.22;;;-146.10;100.00
12763;BME280;6445;52.490;13.378;2023-08-30T05:26:12;33546.63;;;-146.10;100.00
12763;BME280;6445;52.490;13.378;2023-08-30T05:28:38;33676.06;;;-146.10;100.00
12763;BME280;6445;52.490;13.378;2023-08-30T05:31:03;32981.19;;;-146.10;100.00
12763;BME280;6445;52.490;13.378;2023-08-30T05:33:28;35446.63;;;-146.10;100.00
12763;BME280;6445;52.490;13.378;2023-08-30T05:35:54;35084.09;;;-146.10;100.00
12763;BME280;6445;52.490;13.378;2023-08-30T05:38:19;35661.78;;;-146.10;100.00
12763;BME280;6445;52.490;13.378;2023-08-30T05:40:44;37411.34;;;-146.10;100.00
12763;BME280;6445;52.490;13.378;2023-08-30T05:43:10;37867.78;;;-146.10;100.00
12763;BME280;6445;52.490;13.378;2023-08-30T05:45:36;37923.59;;;-146.10;100.00
12763;BME280;6445;52.490;13.378;2023-08-30T05:48:02;38677.16;;;-146.10;100.00
12763;BME280;6445;52.490;13.378;2023-08-30T05:50:27;38300.38;;;-146.10;100.00
12763;BME280;6445;52.490;13.378;2023-08-30T05:52:52;37572.78;;;-146.10;100.00
12763;BME280;6445;52.490;13.378;2023-08-30T05:55:18;37002.78;;;-146.10;100.00
12763;BME280;6445;52.490;13.378;2023-08-30T05:57:44;37560.84;;;-146.10;100.00
12763;BME280;6445;52.490;13.378;2023-08-30T06:00:10;38711.06;;;-146.10;100.00
12763;BME280;6445;52.490;13.378;2023-08-30T06:02:35;38944.34;;;-146.10;100.00
12763;BME280;6445;52.490;13.378;2023-08-30T06:05:00;38796.81;;;-146.10;100.00
12763;BME280;6445;52.490;13.378;2023-08-30T06:07:25;38733.00;;;-146.10;100.00
12763;BME280;6445;52.490;13.378;2023-08-30T06:09:51;38866.59;;;-146.10;100.00
12763;BME280;6445;52.490;13.378;2023-08-30T06:12:16;38683.16;;;-146.10;100.00
12763;BME280;6445;52.490;13.378;2023-08-30T06:14:43;39512.66;;;-146.10;100.00
12763;BME280;6445;52.490;13.378;2023-08-30T06:17:08;40950.69;;;-146.10;100.00
12763;BME280;6445;52.490;13.378;2023-08-30T06:19:33;42471.09;;;-146.10;100.00
12763;BME280;6445;52.490;13.378;2023-08-30T06:21:59;42443.16;;;-146.10;100.00
12763;BME280;6445;52.490;13.378;2023-08-30T06:24:24;41597.09;;;-146.10;100.00
12763;BME280;6445;52.490;13.378;2023-08-30T06:26:49;41894.41;;;-146.10;100.00
12763;BME280;6445;52.490;13.378;2023-08-30T06:29:14;43133.72;;;-146.10;100.00
12763;BME280;6445;52.490;13.378;2023-08-30T06:31:40;41465.41;;;-146.10;100.00
12763;BME280;6445;52.490;13.378;2023-08-30T06:34:07;41543.22;;;-146.10;100.00
12763;BME280;6445;52.490;13.378;2023-08-30T06:36:32;42125.88;;;-146.10;100.00
12763;BME280;6445;52.490;13.378;2023-08-30T06:38:57;43239.53;;;-146.10;100.00
12763;BME280;6445;52.490;13.378;2023-08-30T06:41:23;41611.06;;;-146.10;100.00
12763;BME280;6445;52.490;13.378;2023-08-30T06:43:48;40958.69;;;-146.10;100.00
12763;BME280;6445;52.490;13.378;2023-08-30T06:46:13;45120.25;;;-146.10;100.00
12763;BME280;6445;52.490;13.378;2023-08-30T06:48:39;43081.84;;;-146.10;100.00
12763;BME280;6445;52.490;13.378;2023-08-30T06:51:04;46760.16;;;-146.10;100.00
12763;BME280;6445;52.490;13.378;2023-08-30T06:53:29;48602.59;;;-146.10;100.00
12763;BME280;6445;52.490;13.378;2023-08-30T06:55:58;47419.50;;;-146.10;100.00
12763;BME280;6445;52.490;13.378;2023-08-30T06:58:23;45154.22;;;-146.10;100.00
12763;BME280;6445;52.490;13.378;2023-08-30T07:00:49;41235.97;;;-146.10;100.00
12763;BME280;6445;52.490;13.378;2023-08-30T07:03:14;45667.47;;;-146.10;100.00
12763;BME280;6445;52.490;13.378;2023-08-30T07:05:39;36456.75;;;-146.10;100.00
12763;BME280;6445;52.490;13.378;2023-08-30T07:08:05;36478.69;;;-146.10;100.00
12763;BME280;6445;52.490;13.378;2023-08-30T07:10:30;27812.34;;;-146.10;100.00
12763;BME280;6445;52.490;13.378;2023-08-30T07:12:56;28575.91;;;-146.10;100.00
12763;BME280;6445;52.490;13.378;2023-08-30T07:15:21;32141.13;;;-146.10;100.00
12763;BME280;6445;52.490;13.378;2023-08-30T07:17:46;32650.72;;;-146.10;100.00
12763;BME280;6445;52.490;13.378;2023-08-30T07:20:11;37261.88;;;-146.10;100.00
12763;BME280;6445;52.490;13.378;2023-08-30T07:22:37;38091.06;;;-146.10;100.00
12763;BME280;6445;52.490;13.378;2023-08-30T07:25:02;38250.53;;;-146.10;100.00
12763;BME280;6445;52.490;13.378;2023-08-30T07:27:28;38994.19;;;-146.10;100.00
12763;BME280;6445;52.490;13.378;2023-08-30T07:29:53;40292.44;;;-146.10;100.00
12763;BME280;6445;52.490;13.378;2023-08-30T07:32:18;42038.06;;;-146.10;100.00
12763;BME280;6445;52.490;13.378;2023-08-30T07:34:44;41862.47;;;-146.10;100.00
12763;BME280;6445;52.490;13.378;2023-08-30T07:37:19;42321.44;;;-146.10;100.00
12763;BME280;6445;52.490;13.378;2023-08-30T07:39:45;42854.28;;;-146.10;100.00
12763;BME280;6445;52.490;13.378;2023-08-30T07:42:10;43481.06;;;-146.10;100.00
12763;BME280;6445;52.490;13.378;2023-08-30T07:44:35;43415.19;;;-146.10;100.00
12763;BME280;6445;52.490;13.378;2023-08-30T07:47:01;44431.34;;;-146.10;100.00
12763;BME280;6445;52.490;13.378;2023-08-30T07:49:26;44782.78;;;-146.10;100.00
12763;BME280;6445;52.490;13.378;2023-08-30T07:51:51;46524.41;;;-146.10;100.00
12763;BME280;6445;52.490;13.378;2023-08-30T07:54:16;46420.53;;;-146.10;100.00
12763;BME280;6445;52.490;13.378;2023-08-30T07:56:42;48214.84;;;-146.10;100.00
12763;BME280;6445;52.490;13.378;2023-08-30T07:59:07;48314.78;;;-146.10;100.00
12763;BME280;6445;52.490;13.378;2023-08-30T08:01:32;49162.28;;;-146.10;100.00
12763;BME280;6445;52.490;13.378;2023-08-30T08:03:57;50217.94;;;-146.10;100.00
12763;BME280;6445;52.490;13.378;2023-08-30T08:06:23;54201.13;;;-146.10;100.00
12763;BME280;6445;52.490;13.378;2023-08-30T08:08:48;53308.50;;;-146.10;100.00
12763;BME280;6445;52.490;13.378;2023-08-30T08:11:13;49958.00;;;-146.10;100.00
12763;BME280;6445;52.490;13.378;2023-08-30T08:13:38;50469.88;;;-146.10;100.00
12763;BME280;6445;52.490;13.378;2023-08-30T08:16:04;50665.88;;;-146.10;100.00
12763;BME280;6445;52.490;13.378;2023-08-30T08:18:29;51791.91;;;-146.10;100.00
12763;BME280;6445;52.490;13.378;2023-08-30T08:20:54;50603.88;;;-146.10;100.00
12763;BME280;6445;52.490;13.378;2023-08-30T08:23:19;51251.84;;;-146.10;100.00
12763;BME280;6445;52.490;13.378;2023-08-30T08:25:45;51815.94;;;-146.10;100.00
12763;BME280;6445;52.490;13.378;2023-08-30T08:28:10;51181.84;;;-146.10;100.00
12763;BME280;6445;52.490;13.378;2023-08-30T08:30:36;51347.84;;;-146.10;100.00
12763;BME280;6445;52.490;13.378;2023-08-30T08:33:01;50139.94;;;-146.10;100.00
12763;BME280;6445;52.490;13.378;2023-08-30T08:35:26;50365.91;;;-146.10;100.00
12763;BME280;6445;52.490;13.378;2023-08-30T08:37:51;50573.88;;;-146.10;100.00
12763;BME280;6445;52.490;13.378;2023-08-30T08:40:17;49496.13;;;-146.10;100.00
12763;BME280;6445;52.490;13.378;2023-08-30T08:42:43;49438.16;;;-146.10;100.00
12763;BME280;6445;52.490;13.378;2023-08-30T08:45:09;49714.06;;;-146.10;100.00
12763;BME280;6445;52.490;13.378;2023-08-30T08:47:36;49176.28;;;-146.10;100.00
12763;BME280;6445;52.490;13.378;2023-08-30T08:50:01;50143.94;;;-146.10;100.00
12763;BME280;6445;52.490;13.378;2023-08-30T08:52:28;49985.97;;;-146.10;100.00
12763;BME280;6445;52.490;13.378;2023-08-30T08:54:54;50201.94;;;-146.10;100.00
12763;BME280;6445;52.490;13.378;2023-08-30T08:57:20;50579.88;;;-146.10;100.00
12763;BME280;6445;52.490;13.378;2023-08-30T08:59:46;50525.88;;;-146.10;100.00
12763;BME280;6445;52.490;13.378;2023-08-30T09:02:14;51099.84;;;-146.10;100.00
12763;BME280;6445;52.490;13.378;2023-08-30T09:04:40;50919.84;;;-146.10;100.00
12763;BME280;6445;52.490;13.378;2023-08-30T09:07:05;51533.88;;;-146.10;96.87
12763;BME280;6445;52.490;13.378;2023-08-30T09:09:31;51245.84;;;-146.10;99.45
12763;BME280;6445;52.490;13.378;2023-08-30T09:11:56;51649.91;;;-146.10;95.09
12763;BME280;6445;52.490;13.378;2023-08-30T09:14:21;51997.97;;;-146.10;93.36
12763;BME280;6445;52.490;13.378;2023-08-30T09:16:57;52045.97;;;-146.10;88.20
12763;BME280;6445;52.490;13.378;2023-08-30T09:19:23;52244.03;;;-146.10;79.39
12763;BME280;6445;52.490;13.378;2023-08-30T09:21:52;52430.09;;;-146.10;68.98
12763;BME280;6445;52.490;13.378;2023-08-30T09:24:18;52572.16;;;-146.10;60.42
12763;BME280;6445;52.490;13.378;2023-08-30T09:26:47;52616.16;;;-146.10;55.61
12763;BME280;6445;52.490;13.378;2023-08-30T09:29:13;52778.25;;;-146.10;49.96
12763;BME280;6445;52.490;13.378;2023-08-30T09:31:39;52666.19;;;-146.10;52.03
12763;BME280;6445;52.490;13.378;2023-08-30T09:34:07;52718.22;;;-146.10;51.85
12763;BME280;6445;52.490;13.378;2023-08-30T09:36:40;52650.19;;;-146.10;54.61
12763;BME280;6445;52.490;13.378;2023-08-30T09:39:11;52642.19;;;-146.10;55.86
12763;BME280;6445;52.490;13.378;2023-08-30T09:41:40;52736.22;;;-146.10;53.11
12763;BME280;6445;52.490;13.378;2023-08-30T09:44:09;52880.28;;;-146.10;46.13
12763;BME280;6445;52.490;13.378;2023-08-30T09:46:54;52700.19;;;-146.10;48.38
12763;BME280;6445;52.490;13.378;2023-08-30T09:49:24;52736.22;;;-146.10;47.94
12763;BME280;6445;52.490;13.378;2023-08-30T09:51:51;52868.28;;;-146.10;41.88
12763;BME280;6445;52.490;13.378;2023-08-30T09:56:46;52792.25;;;-146.10;44.06
12763;BME280;6445;52.490;13.378;2023-08-30T09:59:12;52604.16;;;-146.10;47.29
12763;BME280;6445;52.490;13.378;2023-08-30T10:01:40;52614.16;;;-146.10;49.91
12763;BME280;6445;52.490;13.378;2023-08-30T10:04:07;52598.16;;;-146.10;49.66
12763;BME280;6445;52.490;13.378;2023-08-30T10:06:33;52518.13;;;-146.10;54.31
12763;BME280;6445;52.490;13.378;2023-08-30T10:08:58;52560.16;;;-146.10;53.51
12763;BME280;6445;52.490;13.378;2023-08-30T10:11:24;52584.16;;;-146.10;54.25
12763;BME280;6445;52.490;13.378;2023-08-30T10:13:51;52552.16;;;-146.10;54.34
12763;BME280;6445;52.490;13.378;2023-08-30T10:16:19;52586.16;;;-146.10;55.95
12763;BME280;6445;52.490;13.378;2023-08-30T10:19:01;52530.13;;;-146.10;53.77
12763;BME280;6445;52.490;13.378;2023-08-30T10:21:29;52480.13;;;-146.10;57.77
12763;BME280;6445;52.490;13.378;2023-08-30T10:23:55;52506.13;;;-146.10;57.17
12763;BME280;6445;52.490;13.378;2023-08-30T10:26:23;52474.13;;;-146.10;56.22
12763;BME280;6445;52.490;13.378;2023-08-30T10:28:51;52486.13;;;-146.10;56.14
12763;BME280;6445;52.490;13.378;2023-08-30T10:31:17;52458.09;;;-146.10;60.98
12763;BME280;6445;52.490;13.378;2023-08-30T10:33:47;52492.13;;;-146.10;58.79
12763;BME280;6445;52.490;13.378;2023-08-30T10:36:20;52536.13;;;-146.10;55.05
12763;BME280;6445;52.490;13.378;2023-08-30T10:38:49;52534.13;;;-146.10;57.29
12763;BME280;6445;52.490;13.378;2023-08-30T10:41:22;52512.13;;;-146.10;58.01
12763;BME280;6445;52.490;13.378;2023-08-30T10:43:56;52554.16;;;-146.10;55.54
12763;BME280;6445;52.490;13.378;2023-08-30T10:46:32;52582.16;;;-146.10;54.46
12763;BME280;6445;52.490;13.378;2023-08-30T10:49:08;52544.13;;;-146.10;56.30
12763;BME280;6445;52.490;13.378;2023-08-30T10:51:36;52550.16;;;-146.10;56.14
12763;BME280;6445;52.490;13.378;2023-08-30T10:54:12;52488.13;;;-146.10;58.97
12763;BME280;6445;52.490;13.378;2023-08-30T10:56:57;52494.13;;;-146.10;56.68
12763;BME280;6445;52.490;13.378;2023-08-30T10:59:25;52454.09;;;-146.10;56.58
12763;BME280;6445;52.490;13.378;2023-08-30T11:01:51;52454.09;;;-146.10;55.89
12763;BME280;6445;52.490;13.378;2023-08-30T11:04:18;52466.09;;;-146.10;54.48
12763;BME280;6445;52.490;13.378;2023-08-30T11:06:44;52450.09;;;-146.10;53.84
12763;BME280;6445;52.490;13.378;2023-08-30T11:09:12;52466.09;;;-146.10;53.85
12763;BME280;6445;52.490;13.378;2023-08-30T11:11:38;52478.13;;;-146.10;54.23
12763;BME280;6445;52.490;13.378;2023-08-30T11:14:07;52478.13;;;-146.10;53.81
12763;BME280;6445;52.490;13.378;2023-08-30T11:16:33;52536.13;;;-146.10;52.29
12763;BME280;6445;52.490;13.378;2023-08-30T11:19:00;52520.13;;;-146.10;48.04
12763;BME280;6445;52.490;13.378;2023-08-30T11:21:26;52554.16;;;-146.10;46.06
12763;BME280;6445;52.490;13.378;2023-08-30T11:23:51;52536.13;;;-146.10;44.48
12763;BME280;6445;52.490;13.378;2023-08-30T11:26:17;52574.16;;;-146.10;44.85
12763;BME280;6445;52.490;13.378;2023-08-30T11:28:42;52510.13;;;-146.10;45.53
12763;BME280;6445;52.490;13.378;2023-08-30T11:31:17;52450.09;;;-146.10;46.64
12763;BME280;6445;52.490;13.378;2023-08-30T11:33:50;52430.09;;;-146.10;51.13
12763;BME280;6445;52.490;13.378;2023-08-30T11:36:15;52468.09;;;-146.10;52.43
12763;BME280;6445;52.490;13.378;2023-08-30T11:38:40;52448.09;;;-146.10;55.41
12763;BME280;6445;52.490;13.378;2023-08-30T11:41:06;52452.09;;;-146.10;55.35
12763;BME280;6445;52.490;13.378;2023-08-30T11:43:31;52434.09;;;-146.10;55.29
12763;BME280;6445;52.490;13.378;2023-08-30T11:45:56;52400.09;;;-146.10;55.88
12763;BME280;6445;52.490;13.378;2023-08-30T11:48:22;52414.09;;;-146.10;56.33
12763;BME280;6445;52.490;13.378;2023-08-30T11:50:47;52400.09;;;-146.10;54.07
12763;BME280;6445;52.490;13.378;2023-08-30T11:53:13;52418.09;;;-146.10;53.87
12763;BME280;6445;52.490;13.378;2023-08-30T11:55:38;52374.06;;;-146.10;56.47
12763;BME280;6445;52.490;13.378;2023-08-30T11:58:03;52388.09;;;-146.10;55.32
12763;BME280;6445;52.490;13.378;2023-08-30T12:00:32;52408.09;;;-146.10;56.68
12763;BME280;6445;52.490;13.378;2023-08-30T12:02:58;52382.09;;;-146.10;57.48
12763;BME280;6445;52.490;13.378;2023-08-30T12:05:23;52396.09;;;-146.10;55.23
12763;BME280;6445;52.490;13.378;2023-08-30T12:07:48;52384.09;;;-146.10;51.42
12763;BME280;6445;52.490;13.378;2023-08-30T12:10:17;52388.09;;;-146.10;49.58
12763;BME280;6445;52.490;13.378;2023-08-30T12:12:46;52384.09;;;-146.10;51.67
12763;BME280;6445;52.490;13.378;2023-08-30T12:15:12;52412.09;;;-146.10;51.36
12763;BME280;6445;52.490;13.378;2023-08-30T12:17:37;52412.09;;;-146.10;51.28
12763;BME280;6445;52.490;13.378;2023-08-30T12:20:03;52398.09;;;-146.10;49.77
12763;BME280;6445;52.490;13.378;2023-08-30T12:22:38;52378.06;;;-146.10;50.34
12763;BME280;6445;52.490;13.378;2023-08-30T12:25:14;52392.09;;;-146.10;53.97
12763;BME280;6445;52.490;13.378;2023-08-30T12:27:40;52366.06;;;-146.10;55.26
12763;BME280;6445;52.490;13.378;2023-08-30T12:30:06;52366.06;;;-146.10;53.65
12763;BME280;6445;52.490;13.378;2023-08-30T12:32:31;52370.06;;;-146.10;58.27
12763;BME280;6445;52.490;13.378;2023-08-30T12:34:57;52364.06;;;-146.10;59.02